Time;durP1;ratioP1;P1;durP2;ratioP2;P2;SDS_P1;SDS_P2;PMS_P1;PMS_P2;Temp;Humidity;BMP_temperature;BMP_pressure;BME280_temperature;BME280_humidity;BME280_pressure;Samples;Min_cycle;Max_cycle;Signal;HPM_P1;HPM_P2
2024/01/22 00:01:45;;;;;;;2.93;1.80;;;3.20;99.90;;;3.54;100.00;98423.13;5045441;28;20511;-83
2024/01/22 00:04:15;;;;;;;4.97;2.10;;;3.20;99.90;;;3.59;100.00;98425.31;5045914;28;20608;-82
2024/01/22 00:06:44;;;;;;;2.93;2.30;;;3.30;99.90;;;3.58;100.00;98425.44;5039698;28;20496;-83
2024/01/22 00:09:13;;;;;;;2.47;2.27;;;3.30;99.90;;;3.59;100.00;98424.50;5042706;28;20697;-83
2024/01/22 00:11:42;;;;;;;7.00;2.53;;;3.30;99.90;;;3.65;100.00;98421.38;5039697;28;20475;-83
2024/01/22 00:14:10;;;;;;;8.10;2.83;;;3.40;99.90;;;3.65;100.00;98413.59;5042214;28;20870;-82
2024/01/22 00:16:40;;;;;;;6.07;2.20;;;3.40;99.90;;;3.64;100.00;98419.75;5040549;28;20463;-83
2024/01/22 00:19:09;;;;;;;6.00;2.47;;;3.30;99.90;;;3.69;100.00;98407.22;5040731;28;20459;-83
2024/01/22 00:21:44;;;;;;;7.50;1.90;;;3.40;99.90;;;3.71;100.00;98395.00;5040953;28;20508;-83
2024/01/22 00:24:13;;;;;;;3.83;2.10;;;3.40;99.90;;;3.74;100.00;98397.31;5040489;28;20455;-83
2024/01/22 00:26:41;;;;;;;6.07;2.83;;;3.40;99.90;;;3.72;100.00;98375.91;5038877;28;20561;-83
2024/01/22 00:29:10;;;;;;;9.00;2.27;;;3.40;99.90;;;3.69;100.00;98369.25;5041779;28;21000;-84
2024/01/22 00:31:39;;;;;;;3.50;2.00;;;3.40;99.90;;;3.71;100.00;98375.13;5041681;28;20462;-83
2024/01/22 00:34:08;;;;;;;4.00;1.93;;;3.40;99.90;;;3.72;100.00;98374.16;5041022;28;20457;-84
2024/01/22 00:36:37;;;;;;;8.77;2.03;;;3.40;99.90;;;3.72;100.00;98368.97;5042440;28;20460;-84
2024/01/22 00:39:07;;;;;;;5.80;2.40;;;3.40;99.90;;;3.74;100.00;98361.91;5040581;28;20471;-83
2024/01/22 00:41:36;;;;;;;1.77;1.63;;;3.40;99.90;;;3.73;100.00;98354.28;5041644;28;21059;-84
2024/01/22 00:44:05;;;;;;;3.03;1.80;;;3.40;99.90;;;3.73;100.00;98362.03;5040878;28;20547;-83
2024/01/22 00:46:33;;;;;;;3.57;1.90;;;3.40;99.90;;;3.75;100.00;98363.53;5068433;28;20552;-84
2024/01/22 00:49:04;;;;;;;3.97;1.97;;;3.40;99.90;;;3.77;100.00;98373.75;5039723;28;20777;-84
2024/01/22 00:51:33;;;;;;;5.70;2.20;;;3.40;99.90;;;3.77;100.00;98369.41;5040103;28;20480;-83
2024/01/22 00:54:02;;;;;;;3.50;1.40;;;3.40;99.90;;;3.80;100.00;98361.38;5038589;28;20493;-83
2024/01/22 00:56:33;;;;;;;5.00;1.77;;;3.40;99.90;;;3.80;100.00;98361.38;5039441;28;20468;-84
2024/01/22 00:59:01;;;;;;;5.43;1.83;;;3.50;99.90;;;3.81;100.00;98354.44;5039493;28;20464;-84
2024/01/22 01:01:32;;;;;;;5.73;2.03;;;3.50;99.90;;;3.78;100.00;98347.78;5037912;28;20471;-83
2024/01/22 01:04:00;;;;;;;2.33;1.93;;;3.40;99.90;;;3.77;100.00;98353.06;5038878;28;20457;-83
2024/01/22 01:06:29;;;;;;;1.90;1.80;;;3.40;99.90;;;3.82;100.00;98341.34;5040092;28;20463;-83
2024/01/22 01:08:57;;;;;;;4.30;2.20;;;3.50;99.90;;;3.82;100.00;98349.09;5041414;28;20497;-84
2024/01/22 01:11:26;;;;;;;2.50;1.70;;;3.50;99.90;;;3.83;100.00;98340.41;5040367;28;20471;-83
2024/01/22 01:13:56;;;;;;;7.27;2.03;;;3.60;99.90;;;3.85;100.00;98348.81;5038913;28;20507;-83
2024/01/22 01:16:25;;;;;;;2.63;1.93;;;3.60;99.90;;;3.85;100.00;98343.66;5040350;28;20465;-83
2024/01/22 01:18:53;;;;;;;8.20;2.73;;;3.60;99.90;;;3.85;100.00;98354.00;5040743;28;20463;-83
2024/01/22 01:21:22;;;;;;;3.23;2.00;;;3.50;99.90;;;3.85;100.00;98335.09;5037496;28;20472;-83
2024/01/22 01:23:51;;;;;;;5.57;1.80;;;3.50;99.90;;;3.90;100.00;98332.91;5041490;28;20940;-83
2024/01/22 01:26:20;;;;;;;4.90;2.00;;;3.60;99.90;;;3.89;100.00;98329.50;5041344;28;20528;-83
2024/01/22 01:28:49;;;;;;;4.40;1.80;;;3.60;99.90;;;3.91;100.00;98316.44;5041563;28;20505;-83
2024/01/22 01:31:22;;;;;;;4.07;2.27;;;3.60;99.90;;;3.90;100.00;98315.63;5040392;28;20461;-83
2024/01/22 01:33:50;;;;;;;3.60;1.83;;;3.60;99.90;;;3.92;100.00;98312.91;5040557;28;20450;-83
2024/01/22 01:36:19;;;;;;;7.73;2.87;;;3.60;99.90;;;3.90;100.00;98301.88;5039192;28;20465;-83
2024/01/22 01:38:47;;;;;;;6.60;2.40;;;3.60;99.90;;;3.89;100.00;98311.38;5041767;28;20566;-83
2024/01/22 01:41:16;;;;;;;8.40;2.60;;;3.60;99.90;;;3.91;100.00;98300.91;5039080;28;22332;-83
2024/01/22 01:43:45;;;;;;;7.80;1.97;;;3.60;99.90;;;3.94;100.00;98310.97;5038072;28;20470;-83
2024/01/22 01:46:13;;;;;;;9.80;2.20;;;3.60;99.90;;;3.93;100.00;98306.75;5044358;28;20476;-83
2024/01/22 01:48:44;;;;;;;2.90;1.80;;;3.70;99.90;;;3.93;100.00;98293.81;5039361;28;20496;-84
2024/01/22 01:51:13;;;;;;;3.20;2.30;;;3.70;99.90;;;3.94;100.00;98279.94;5039333;28;20470;-83
2024/01/22 01:53:42;;;;;;;10.23;2.00;;;3.70;99.90;;;3.98;100.00;98284.72;5038928;28;20567;-84
2024/01/22 01:56:11;;;;;;;4.23;1.70;;;3.70;99.90;;;3.98;100.00;98281.31;5036384;28;20549;-84
2024/01/22 01:58:40;;;;;;;6.43;2.40;;;3.70;99.90;;;4.00;100.00;98279.38;5038714;28;20518;-83
2024/01/22 02:01:09;;;;;;;4.80;1.97;;;3.70;99.90;;;4.03;100.00;98279.09;5035921;28;20479;-83
2024/01/22 02:03:40;;;;;;;8.93;2.23;;;3.60;99.90;;;4.02;100.00;98280.06;5036952;28;20462;-83
2024/01/22 02:06:10;;;;;;;2.30;1.93;;;3.70;99.90;;;4.00;100.00;98266.44;5038370;28;20787;-84
2024/01/22 02:08:39;;;;;;;7.47;2.10;;;3.70;99.90;;;4.00;100.00;98266.44;5036786;28;20516;-83
2024/01/22 02:11:08;;;;;;;6.67;1.90;;;3.70;99.90;;;4.00;100.00;98256.09;5036121;28;20462;-83
2024/01/22 02:13:36;;;;;;;6.93;2.37;;;3.70;99.90;;;4.01;100.00;98249.97;5039947;28;20826;-83
2024/01/22 02:16:06;;;;;;;5.03;1.80;;;3.70;99.90;;;4.04;100.00;98249.69;5036138;28;20465;-84
2024/01/22 02:18:35;;;;;;;5.53;1.70;;;3.70;99.90;;;3.98;100.00;98247.66;5038942;28;20477;-83
2024/01/22 02:21:04;;;;;;;2.93;2.10;;;3.70;99.90;;;4.00;100.00;98243.97;5039001;28;20461;-83
2024/01/22 02:23:34;;;;;;;4.47;2.37;;;3.70;99.90;;;4.02;100.00;98230.91;5038573;28;20460;-83
2024/01/22 02:26:02;;;;;;;4.67;1.90;;;3.70;99.90;;;4.05;100.00;98225.47;5038291;28;20550;-83
2024/01/22 02:28:31;;;;;;;4.90;1.90;;;3.70;99.90;;;4.10;100.00;98223.25;5039453;28;20858;-83
2024/01/22 02:31:01;;;;;;;4.77;2.50;;;3.70;99.90;;;4.09;100.00;98200.94;5039106;28;20483;-83
2024/01/22 02:33:30;;;;;;;4.93;1.87;;;3.80;99.90;;;4.09;100.00;98198.34;5043831;28;20540;-83
2024/01/22 02:35:58;;;;;;;10.60;2.13;;;3.70;99.90;;;4.07;100.00;98187.31;5038241;28;20466;-83
2024/01/22 02:38:27;;;;;;;2.43;1.70;;;3.70;99.90;;;4.06;100.00;98175.34;5039791;28;20460;-83
2024/01/22 02:40:57;;;;;;;7.97;2.40;;;3.70;99.90;;;4.10;100.00;98175.84;5039678;28;20466;-83
2024/01/22 02:43:26;;;;;;;3.40;1.60;;;3.70;99.90;;;4.10;100.00;98165.50;5038454;28;20465;-83
2024/01/22 02:45:54;;;;;;;5.60;2.10;;;3.70;99.90;;;4.10;100.00;98171.50;5038740;28;20460;-83
2024/01/22 02:48:23;;;;;;;5.90;2.23;;;3.70;99.90;;;4.12;100.00;98190.31;5037522;28;20490;-83
2024/01/22 02:50:51;;;;;;;3.93;1.70;;;3.70;99.90;;;4.14;100.00;98190.97;5040335;28;20464;-83
2024/01/22 02:53:20;;;;;;;2.50;1.73;;;3.80;99.90;;;4.19;100.00;98183.59;5038134;28;20509;-82
2024/01/22 02:55:48;;;;;;;7.53;1.80;;;3.90;99.90;;;4.21;100.00;98183.44;5037431;28;20986;-84
2024/01/22 02:58:18;;;;;;;1.87;1.50;;;3.90;99.90;;;4.19;100.00;98181.00;5036167;28;20468;-83
2024/01/22 03:00:47;;;;;;;3.13;1.70;;;3.90;99.90;;;4.20;100.00;98181.81;5036365;28;20468;-83
2024/01/22 03:03:17;;;;;;;4.60;1.90;;;3.90;99.90;;;4.22;100.00;98188.47;5037456;28;20468;-83
2024/01/22 03:05:45;;;;;;;6.53;1.83;;;3.90;99.90;;;4.21;100.00;98183.44;5035433;28;20469;-83
2024/01/22 03:08:15;;;;;;;5.40;1.57;;;3.80;99.90;;;4.19;100.00;98172.44;5037699;28;20481;-83
2024/01/22 03:10:44;;;;;;;3.93;2.23;;;3.90;99.90;;;4.21;100.00;98158.38;5035507;28;21008;-83
2024/01/22 03:13:13;;;;;;;3.40;2.00;;;3.90;99.90;;;4.24;100.00;98142.56;5035355;28;20963;-84
2024/01/22 03:15:44;;;;;;;3.67;2.13;;;4.00;99.90;;;4.27;100.00;98138.88;5036185;28;20582;-83
2024/01/22 03:18:13;;;;;;;2.80;1.60;;;4.00;99.90;;;4.28;100.00;98146.50;5038256;28;20456;-83
2024/01/22 03:20:42;;;;;;;3.80;2.17;;;4.00;99.90;;;4.32;100.00;98144.44;5037834;28;21361;-83
2024/01/22 03:23:11;;;;;;;3.73;1.63;;;4.00;99.90;;;4.35;100.00;98139.78;5035539;28;21072;-84
2024/01/22 03:25:39;;;;;;;4.47;1.50;;;4.00;99.90;;;4.37;100.00;98132.66;5037800;28;20463;-82
2024/01/22 03:28:08;;;;;;;4.20;1.80;;;4.10;99.90;;;4.40;100.00;98127.22;5039196;28;20472;-83
2024/01/22 03:30:37;;;;;;;3.33;1.80;;;4.10;99.90;;;4.40;100.00;98122.03;5037463;28;20473;-83
2024/01/22 03:33:07;;;;;;;7.37;2.00;;;4.10;99.90;;;4.40;100.00;98110.88;5037104;28;20466;-84
2024/01/22 03:35:36;;;;;;;5.13;1.80;;;4.10;99.90;;;4.40;100.00;98114.28;5034742;28;20461;-84
2024/01/22 03:38:05;;;;;;;3.70;1.90;;;4.10;99.90;;;4.40;100.00;98116.03;5037104;28;20465;-82
2024/01/22 03:40:34;;;;;;;2.00;1.60;;;4.10;99.90;;;4.38;100.00;98103.25;5038438;28;20483;-83
2024/01/22 03:43:02;;;;;;;2.70;1.70;;;4.10;99.90;;;4.41;100.00;98109.88;5037578;28;20987;-84
2024/01/22 03:45:31;;;;;;;5.20;1.73;;;4.10;99.90;;;4.44;100.00;98104.44;5036104;28;20520;-83
2024/01/22 03:47:59;;;;;;;2.00;1.40;;;4.20;99.90;;;4.44;100.00;98091.50;5035398;28;20706;-84
2024/01/22 03:50:30;;;;;;;4.17;2.20;;;4.10;99.90;;;4.48;100.00;98103.97;5035349;28;20491;-83
2024/01/22 03:52:59;;;;;;;6.67;2.30;;;4.20;99.90;;;4.48;100.00;98103.97;5037851;28;20468;-84
2024/01/22 03:55:28;;;;;;;3.33;1.97;;;4.20;99.90;;;4.50;100.00;98096.09;5035747;28;20490;-83
2024/01/22 03:57:56;;;;;;;5.40;2.37;;;4.20;99.90;;;4.49;100.00;98090.09;5036612;28;20462;-84
2024/01/22 04:00:25;;;;;;;1.43;1.27;;;4.20;99.90;;;4.49;100.00;98095.25;5037154;28;20483;-83
2024/01/22 04:02:53;;;;;;;3.70;1.63;;;4.20;99.90;;;4.51;100.00;98095.91;5035630;28;20709;-83
2024/01/22 04:05:22;;;;;;;9.90;3.83;;;4.20;99.90;;;4.52;100.00;98088.97;5034229;28;20824;-80
2024/01/22 04:07:52;;;;;;;4.83;1.57;;;4.20;99.90;;;4.57;100.00;98082.41;5060573;28;20822;-84
2024/01/22 04:10:21;;;;;;;2.93;2.00;;;4.30;99.90;;;4.55;100.00;98084.31;5035725;28;20500;-84
2024/01/22 04:12:50;;;;;;;2.97;1.90;;;4.30;99.90;;;4.53;100.00;98086.25;5043404;28;20452;-82
2024/01/22 04:15:19;;;;;;;3.60;1.97;;;4.20;99.90;;;4.60;100.00;98083.88;5041358;28;20701;-82
2024/01/22 04:17:48;;;;;;;12.40;8.80;;;4.30;99.90;;;4.62;100.00;98074.16;5040603;28;20487;-81
2024/01/22 04:20:17;;;;;;;9.40;4.40;;;4.30;99.90;;;4.66;100.00;98085.03;5037905;28;20472;-86
2024/01/22 04:22:45;;;;;;;2.57;1.53;;;4.30;99.90;;;4.67;100.00;98078.91;5038705;28;20466;-82
2024/01/22 04:25:16;;;;;;;3.07;2.33;;;4.40;99.90;;;4.70;100.00;98073.44;5040217;28;20588;-82
2024/01/22 04:27:44;;;;;;;6.10;2.20;;;4.40;99.90;;;4.72;100.00;98069.72;5040011;28;20460;-82
2024/01/22 04:30:14;;;;;;;6.60;1.80;;;4.40;99.90;;;4.72;100.00;98071.53;5037588;28;20506;-82
2024/01/22 04:32:43;;;;;;;9.07;5.30;;;4.40;99.90;;;4.76;100.00;98065.06;5038752;28;20465;-78
2024/01/22 04:35:12;;;;;;;2.80;2.23;;;4.40;99.90;;;4.79;100.00;98060.38;5035237;28;20533;-83
2024/01/22 04:37:40;;;;;;;3.50;1.77;;;4.50;99.90;;;4.81;100.00;98058.47;5036670;28;20465;-81
2024/01/22 04:40:11;;;;;;;2.63;1.70;;;4.50;99.90;;;4.82;100.00;98056.72;5040206;28;20462;-81
2024/01/22 04:42:43;;;;;;;3.07;1.60;;;4.50;99.90;;;4.79;100.00;98055.22;5039110;28;20558;-82
2024/01/22 04:45:12;;;;;;;3.00;1.50;;;4.50;99.90;;;4.81;100.00;98037.75;5039555;28;20488;-82
2024/01/22 04:47:41;;;;;;;4.80;1.60;;;4.50;99.90;;;4.77;100.00;98033.84;5039192;28;20473;-82
2024/01/22 04:50:11;;;;;;;7.77;2.20;;;4.40;99.90;;;4.76;100.00;98033.97;5040950;28;20501;-81
2024/01/22 04:52:39;;;;;;;4.33;2.10;;;4.50;99.90;;;4.83;100.00;98022.03;5039209;28;20553;-82
2024/01/22 04:55:09;;;;;;;3.50;1.53;;;4.60;99.90;;;4.85;100.00;98025.31;5037884;28;20469;-82
2024/01/22 04:57:50;;;;;;;2.53;1.70;;;4.60;99.90;;;4.88;100.00;98019.84;5037626;28;20782;-81
2024/01/22 05:00:19;;;;;;;2.57;1.70;;;4.60;99.90;;;4.87;100.00;98029.38;5037388;28;20462;-81
2024/01/22 05:02:48;;;;;;;5.03;1.43;;;4.50;99.90;;;4.88;100.00;98027.59;5037377;28;20499;-83
2024/01/22 05:05:17;;;;;;;6.47;1.80;;;4.50;99.90;;;4.86;100.00;98014.00;5040469;28;20469;-79
2024/01/22 05:07:46;;;;;;;1.93;1.50;;;4.60;99.90;;;4.85;100.00;98008.00;5037774;28;20555;-82
2024/01/22 05:10:15;;;;;;;2.80;1.60;;;4.60;99.90;;;4.88;100.00;97994.75;5040445;28;20499;-82
2024/01/22 05:12:44;;;;;;;3.13;1.63;;;4.60;99.90;;;4.89;100.00;97998.16;5041959;28;20964;-82
2024/01/22 05:15:15;;;;;;;6.07;1.87;;;4.60;99.90;;;4.89;100.00;97998.16;5041127;28;20470;-82
2024/01/22 05:17:44;;;;;;;3.17;1.63;;;4.60;99.90;;;4.91;100.00;97996.19;5041443;28;20514;-82
2024/01/22 05:20:13;;;;;;;3.00;1.60;;;4.60;99.90;;;4.87;100.00;97993.09;5039523;28;21012;-83
2024/01/22 05:22:41;;;;;;;3.47;1.90;;;4.60;99.90;;;4.88;100.00;97989.56;5037538;28;20635;-83
2024/01/22 05:25:10;;;;;;;1.37;1.23;;;4.50;99.90;;;4.88;100.00;97996.50;5037815;28;20469;-82
2024/01/22 05:27:40;;;;;;;3.10;1.90;;;4.50;99.90;;;4.88;100.00;97991.34;5041468;28;20463;-82
2024/01/22 05:30:10;;;;;;;10.40;2.10;;;4.50;99.90;;;4.86;100.00;97982.91;5038205;28;20505;-82
2024/01/22 05:32:40;;;;;;;3.53;1.87;;;4.50;99.90;;;4.85;100.00;97970.91;5040608;28;20988;-80
2024/01/22 05:35:09;;;;;;;2.10;1.50;;;4.50;99.90;;;4.86;100.00;97967.38;5038247;28;20555;-81
2024/01/22 05:37:38;;;;;;;2.70;1.50;;;4.60;99.90;;;4.86;100.00;97951.84;5040598;28;21049;-82
2024/01/22 05:40:09;;;;;;;7.10;1.90;;;4.50;99.90;;;4.82;100.00;97960.88;5038501;28;20498;-81
2024/01/22 05:42:38;;;;;;;2.40;1.57;;;4.40;99.90;;;4.82;100.00;97955.69;5038828;28;20578;-83
2024/01/22 05:45:09;;;;;;;38.83;12.73;;;4.40;99.90;;;4.82;100.00;97964.28;5039035;28;20690;-81
2024/01/22 05:47:37;;;;;;;3.43;1.60;;;4.40;99.90;;;4.87;100.00;97961.19;5038887;28;20469;-81
2024/01/22 05:50:10;;;;;;;5.77;1.97;;;4.50;99.90;;;4.84;100.00;97957.16;5039590;28;20580;-82
2024/01/22 05:52:38;;;;;;;2.33;1.47;;;4.50;99.90;;;4.85;100.00;97950.19;5037146;28;20837;-81
2024/01/22 05:55:08;;;;;;;2.40;1.70;;;4.50;99.90;;;4.88;100.00;97949.88;5036859;28;20544;-81
2024/01/22 05:57:37;;;;;;;3.00;1.90;;;4.50;99.90;;;4.86;100.00;97952.63;5038826;28;21044;-79
2024/01/22 06:00:09;;;;;;;1.80;1.40;;;4.50;99.90;;;4.90;100.00;97955.72;5040559;28;20980;-81
2024/01/22 06:02:38;;;;;;;37.53;18.83;;;4.60;99.90;;;4.90;100.00;97955.72;5038930;28;20465;-79
2024/01/22 06:05:09;;;;;;;10.70;2.73;;;4.50;99.90;;;4.88;100.00;97942.13;5038084;28;20855;-81
2024/01/22 06:07:39;;;;;;;3.13;1.47;;;4.50;99.90;;;4.91;100.00;97931.44;5036764;28;20533;-81
2024/01/22 06:10:09;;;;;;;2.30;1.70;;;4.50;99.90;;;4.92;100.00;97933.88;5038952;28;20488;-81
2024/01/22 06:12:38;;;;;;;2.40;1.80;;;4.60;99.90;;;4.93;100.00;97937.25;5039750;28;21100;-81
2024/01/22 06:15:08;;;;;;;8.33;2.13;;;4.60;99.90;;;4.92;100.00;97939.06;5039874;28;20463;-81
2024/01/22 06:17:37;;;;;;;2.70;1.73;;;4.60;99.90;;;4.94;100.00;97934.53;5030464;28;20605;-80
2024/01/22 06:20:09;;;;;;;3.27;1.77;;;4.60;99.90;;;4.97;100.00;97930.81;5036723;28;20515;-80
2024/01/22 06:22:38;;;;;;;5.97;2.57;;;4.60;99.90;;;4.95;100.00;97914.63;5037850;28;20458;-81
2024/01/22 06:25:07;;;;;;;6.40;1.60;;;4.60;99.90;;;4.96;100.00;97908.50;5036127;28;20465;-81
2024/01/22 06:27:36;;;;;;;4.72;1.80;;;4.70;99.90;;;4.97;100.00;97904.91;5037854;28;20572;-81
2024/01/22 06:30:08;;;;;;;3.47;1.80;;;4.70;99.90;;;5.01;100.00;97903.63;5041921;28;20223;-81
2024/01/22 06:32:37;;;;;;;5.90;1.50;;;4.60;99.90;;;4.99;100.00;97895.22;5043070;28;20543;-81
2024/01/22 06:35:06;;;;;;;2.60;1.80;;;4.60;99.90;;;4.98;100.00;97888.41;5042136;28;20476;-81
2024/01/22 06:37:36;;;;;;;2.00;1.70;;;4.60;99.90;;;4.97;100.00;97889.38;5042027;28;20480;-81
2024/01/22 06:40:07;;;;;;;3.50;1.70;;;4.60;99.90;;;4.98;100.00;97873.69;5043429;28;20462;-81
2024/01/22 06:42:35;;;;;;;3.60;1.87;;;4.60;99.90;;;4.97;100.00;97876.41;5042935;28;20909;-81
2024/01/22 06:45:08;;;;;;;1.37;1.07;;;4.60;99.90;;;4.96;100.00;97862.63;5039692;28;20867;-81
2024/01/22 06:47:37;;;;;;;3.47;1.37;;;4.60;99.90;;;4.98;100.00;97871.09;5041845;28;20468;-81
2024/01/22 06:50:07;;;;;;;3.33;1.60;;;4.60;99.90;;;4.95;100.00;97863.63;5040279;28;20469;-81
2024/01/22 06:52:38;;;;;;;4.40;1.60;;;4.60;99.90;;;4.98;100.00;97867.69;5040618;28;20575;-81
2024/01/22 06:55:08;;;;;;;2.23;1.50;;;4.60;99.90;;;4.97;100.00;97864.28;5041214;28;20817;-80
2024/01/22 06:57:37;;;;;;;3.17;1.90;;;4.60;99.90;;;5.01;100.00;97862.19;5041686;28;20542;-81
2024/01/22 07:00:08;;;;;;;5.80;1.70;;;4.70;99.90;;;5.01;100.00;97869.94;5041999;28;20964;-80
2024/01/22 07:02:38;;;;;;;2.83;2.00;;;4.60;99.90;;;5.05;100.00;97859.13;5041600;28;20469;-80
2024/01/22 07:05:08;;;;;;;3.67;1.90;;;4.70;99.90;;;5.05;100.00;97859.13;5041545;28;20998;-81
2024/01/22 07:07:39;;;;;;;1.50;1.40;;;4.70;99.90;;;5.02;100.00;97869.81;5039860;28;20461;-80
2024/01/22 07:10:09;;;;;;;5.77;2.00;;;4.70;99.90;;;5.05;100.00;97860.91;5040838;28;20465;-81
2024/01/22 07:12:40;;;;;;;2.67;1.57;;;4.70;99.90;;;5.08;100.00;97852.81;5040143;28;21003;-81
2024/01/22 07:15:12;;;;;;;3.00;1.20;;;4.70;99.90;;;5.10;100.00;97850.91;5041774;28;20452;-81
2024/01/22 07:17:42;;;;;;;2.50;1.47;;;4.70;99.90;;;5.10;100.00;97853.47;5041489;28;20490;-81
2024/01/22 07:20:15;;;;;;;3.17;1.50;;;4.70;99.90;;;5.12;100.00;97838.56;5041766;28;20471;-80
2024/01/22 07:22:47;;;;;;;2.83;1.80;;;4.80;99.90;;;5.12;100.00;97835.16;5041336;28;20512;-81
2024/01/22 07:25:17;;;;;;;1.77;1.20;;;4.80;99.90;;;5.09;100.00;97838.91;5041705;28;20461;-81
2024/01/22 07:27:46;;;;;;;3.37;1.57;;;4.80;99.90;;;5.12;100.00;97845.53;5042595;28;20453;-79
2024/01/22 07:30:15;;;;;;;3.40;1.40;;;4.80;99.90;;;5.13;100.00;97847.97;5042953;28;20466;-79
2024/01/22 07:32:45;;;;;;;2.23;1.30;;;4.80;99.90;;;5.13;100.00;97845.41;5042961;28;20863;-79
2024/01/22 07:35:15;;;;;;;2.30;1.20;;;4.80;99.90;;;5.18;100.00;97831.94;5041681;28;20529;-79
2024/01/22 07:37:46;;;;;;;2.70;1.43;;;4.90;99.90;;;5.17;100.00;97841.53;5042528;28;20807;-79
2024/01/22 07:40:15;;;;;;;3.40;1.60;;;4.80;99.90;;;5.27;100.00;97852.56;5042049;28;20466;-79
2024/01/22 07:42:44;;;;;;;2.17;1.63;;;4.90;99.90;;;5.30;100.00;97848.84;5041573;28;20892;-80
2024/01/22 07:45:14;;;;;;;1.90;1.17;;;5.00;99.90;;;5.30;100.00;97843.66;5041921;28;20555;-80
2024/01/22 07:47:43;;;;;;;2.80;1.50;;;5.00;99.90;;;5.40;100.00;97845.13;5044005;28;20494;-80
2024/01/22 07:50:14;;;;;;;3.57;1.60;;;5.00;99.90;;;5.41;100.00;97859.72;5045633;28;20543;-80
2024/01/22 07:52:43;;;;;;;1.60;1.50;;;5.00;99.90;;;5.42;100.00;97850.94;5044305;28;20536;-79
2024/01/22 07:55:18;;;;;;;1.67;1.37;;;5.00;99.90;;;5.42;100.00;97868.28;5043935;28;20543;-79
2024/01/22 07:57:47;;;;;;;3.90;1.57;;;5.10;99.90;;;5.46;100.00;97857.44;5040754;28;20504;-78
2024/01/22 08:00:17;;;;;;;1.73;1.40;;;5.10;99.90;;;5.44;100.00;97869.78;5044486;28;20492;-79
2024/01/22 08:02:46;;;;;;;1.67;1.20;;;5.10;99.90;;;5.42;100.00;97876.88;5044378;28;20462;-79
2024/01/22 08:05:15;;;;;;;1.47;1.37;;;5.10;99.90;;;5.43;100.00;97868.13;5044902;28;20471;-79
2024/01/22 08:07:44;;;;;;;1.50;1.40;;;5.10;99.90;;;5.47;100.00;97882.41;5043672;28;20467;-79
2024/01/22 08:10:16;;;;;;;2.60;1.40;;;5.20;99.90;;;5.50;100.00;97873.50;5041483;28;20462;-78
2024/01/22 08:12:45;;;;;;;1.40;1.27;;;5.20;99.90;;;5.52;100.00;97876.72;5045515;28;21085;-79
2024/01/22 08:15:14;;;;;;;1.93;1.30;;;5.20;99.90;;;5.49;100.00;97883.06;5045868;28;20522;-78
2024/01/22 08:17:46;;;;;;;1.60;1.50;;;5.20;99.90;;;5.52;100.00;97876.72;5044011;28;20611;-79
2024/01/22 08:20:17;;;;;;;2.90;1.80;;;5.20;99.90;;;5.50;100.00;97884.69;5043171;28;20458;-79
2024/01/22 08:22:47;;;;;;;3.23;1.67;;;5.20;99.90;;;5.49;100.00;97877.88;5044437;28;20950;-79
2024/01/22 08:25:26;;;;;;;3.03;1.87;;;5.20;99.90;;;5.49;100.00;97883.06;5042577;28;20531;-79
2024/01/22 08:27:55;;;;;;;5.93;2.00;;;5.20;99.90;;;5.55;100.00;97873.84;5044980;28;20487;-79
2024/01/22 08:30:25;;;;;;;4.10;2.07;;;5.20;99.90;;;5.57;100.00;97869.28;5042015;28;20833;-79
2024/01/22 08:32:54;;;;;;;1.80;1.60;;;5.20;99.90;;;5.55;100.00;97879.81;5043272;28;20493;-79
2024/01/22 08:35:23;;;;;;;2.60;1.60;;;5.20;99.90;;;5.51;100.00;97868.16;5043958;28;21070;-79
2024/01/22 08:37:53;;;;;;;2.33;1.37;;;5.20;99.90;;;5.53;100.00;97866.22;5043517;28;20763;-77
2024/01/22 08:40:25;;;;;;;2.13;1.77;;;5.20;99.90;;;5.50;100.00;97858.75;5044389;28;20497;-79
2024/01/22 08:42:55;;;;;;;2.60;1.80;;;5.20;99.90;;;5.56;100.00;97849.50;5044592;28;20461;-79
2024/01/22 08:45:24;;;;;;;3.13;1.50;;;5.20;99.90;;;5.57;100.00;97851.97;5042772;28;20552;-80
2024/01/22 08:47:53;;;;;;;1.83;1.70;;;5.20;99.90;;;5.61;100.00;97860.22;5043916;28;20833;-79
2024/01/22 08:50:22;;;;;;;2.17;1.87;;;5.30;99.90;;;5.61;100.00;97852.44;5044457;28;20532;-79
2024/01/22 08:52:53;;;;;;;3.17;2.07;;;5.30;99.90;;;5.66;100.00;97851.97;5042607;28;20591;-79
2024/01/22 08:55:24;;;;;;;3.63;1.80;;;5.30;99.90;;;5.60;100.00;97850.81;5044455;28;20500;-79
2024/01/22 08:57:54;;;;;;;6.83;2.27;;;5.30;99.90;;;5.66;100.00;97846.78;5042934;28;20462;-78
2024/01/22 09:00:24;;;;;;;2.10;1.73;;;5.30;99.90;;;5.62;100.00;97846.31;5044154;28;20523;-79
2024/01/22 09:02:53;;;;;;;1.93;1.70;;;5.30;99.90;;;5.59;100.00;97842.22;5045904;28;20539;-79
2024/01/22 09:05:23;;;;;;;1.47;1.37;;;5.30;99.90;;;5.62;100.00;97825.56;5044953;28;20468;-79
2024/01/22 09:07:52;;;;;;;2.90;1.77;;;5.30;99.90;;;5.64;100.00;97830.56;5042894;28;20472;-79
2024/01/22 09:10:27;;;;;;;3.50;2.20;;;5.30;99.90;;;5.65;100.00;97827.00;5043755;28;20519;-78
2024/01/22 09:12:56;;;;;;;2.80;2.07;;;5.40;99.90;;;5.66;100.00;97821.63;5044196;28;20583;-79
2024/01/22 09:15:24;;;;;;;1.73;1.63;;;5.30;99.90;;;5.62;100.00;97822.97;5044020;28;20464;-79
2024/01/22 09:17:54;;;;;;;2.50;1.97;;;5.30;99.90;;;5.63;100.00;97821.97;5043057;28;20472;-80
2024/01/22 09:20:23;;;;;;;3.07;1.90;;;5.30;99.90;;;5.63;100.00;97818.56;5044413;28;20462;-79
2024/01/22 09:22:52;;;;;;;1.40;1.30;;;5.30;99.90;;;5.68;100.00;97829.28;5045097;28;20942;-79
2024/01/22 09:25:21;;;;;;;2.13;1.43;;;5.30;99.90;;;5.70;100.00;97806.56;5042890;28;20471;-79
2024/01/22 09:27:51;;;;;;;1.40;1.30;;;5.40;99.90;;;5.71;100.00;97806.41;5042840;28;21008;-79
2024/01/22 09:30:20;;;;;;;1.40;1.30;;;5.30;99.90;;;5.74;100.00;97802.69;5040868;28;20476;-79
2024/01/22 09:32:50;;;;;;;2.50;1.50;;;5.40;99.90;;;5.75;100.00;97799.94;5040104;28;20489;-79
2024/01/22 09:35:19;;;;;;;1.83;1.57;;;5.40;99.90;;;5.73;100.00;97807.06;5041567;28;21038;-79
2024/01/22 09:37:49;;;;;;;2.07;1.50;;;5.40;99.90;;;5.75;100.00;97794.75;5042787;28;20462;-80
2024/01/22 09:40:18;;;;;;;2.33;1.50;;;5.40;99.90;;;5.77;100.00;97800.56;5042780;28;20508;-80
2024/01/22 09:43:03;;;;;;;1.57;1.40;;;5.40;99.90;;;5.81;100.00;97803.66;5042386;28;20552;-80
2024/01/22 09:45:33;;;;;;;1.70;1.60;;;5.50;99.90;;;5.84;100.00;97795.53;5044533;28;20465;-79
2024/01/22 09:48:03;;;;;;;1.83;1.40;;;5.50;99.90;;;5.86;100.00;97797.03;5043853;28;20952;-79
2024/01/22 09:50:33;;;;;;;1.70;1.60;;;5.50;99.90;;;5.87;100.00;97790.03;5042818;28;20458;-79
2024/01/22 09:53:09;;;;;;;1.93;1.30;;;5.50;99.90;;;5.91;100.00;97788.75;5040683;28;20548;-79
2024/01/22 09:55:41;;;;;;;2.17;1.20;;;5.50;99.90;;;5.93;100.00;97792.00;5042824;28;20508;-79
2024/01/22 09:58:19;;;;;;;1.50;1.40;;;5.50;99.90;;;5.94;100.00;97788.41;5044305;28;20907;-78
2024/01/22 10:00:49;;;;;;;1.70;1.60;;;5.60;99.90;;;5.94;100.00;97781.44;5043241;28;20464;-80
2024/01/22 10:03:18;;;;;;;2.80;1.40;;;5.60;99.90;;;5.99;100.00;97773.19;5042989;28;20454;-80
2024/01/22 10:05:51;;;;;;;4.97;1.43;;;5.60;99.90;;;6.03;100.00;97782.25;5040910;28;20466;-79
2024/01/22 10:08:20;;;;;;;10.47;1.73;;;5.60;99.90;;;6.06;100.00;97777.56;5041289;28;20473;-79
2024/01/22 10:10:49;;;;;;;1.53;1.30;;;5.60;99.90;;;6.08;100.00;97780.78;5040585;28;20460;-79
2024/01/22 10:13:19;;;;;;;2.50;1.70;;;5.60;99.90;;;6.10;100.00;97778.03;5043506;28;21230;-80
2024/01/22 10:15:48;;;;;;;1.70;1.50;;;5.70;99.90;;;6.12;100.00;97775.25;5043333;28;20462;-79
2024/01/22 10:18:18;;;;;;;1.70;1.30;;;5.70;99.90;;;6.07;100.00;97783.56;5041937;28;20464;-80
2024/01/22 10:20:50;;;;;;;2.10;1.40;;;5.70;99.90;;;6.09;100.00;97779.00;5043802;28;20534;-79
2024/01/22 10:23:19;;;;;;;1.70;1.23;;;5.70;99.90;;;6.12;100.00;97773.47;5040941;28;20470;-80
2024/01/22 10:25:47;;;;;;;2.60;1.53;;;5.80;99.90;;;6.14;100.00;97781.09;5041013;28;21067;-79
2024/01/22 10:28:19;;;;;;;5.03;2.10;;;5.70;99.90;;;6.14;100.00;97773.31;5040675;28;20511;-79
2024/01/22 10:31:03;;;;;;;2.30;1.67;;;5.80;99.90;;;6.15;100.00;97769.72;5040299;28;20965;-79
2024/01/22 10:33:32;;;;;;;4.23;1.83;;;5.80;99.90;;;6.16;100.00;97766.97;5043074;28;20510;-80
2024/01/22 10:36:16;;;;;;;2.63;1.83;;;5.80;99.90;;;6.18;100.00;97762.41;5042274;28;20464;-80